Terminal Aerodrome Forecast
Issued by NWS Jackson, MS

Home | Current Version | Previous Version | Text Only | Print | Product List | Glossary On
Versions: 1 2 3 4 5 6 7 8 9 10 11 12 13 14 15 16 17 18
291
FTUS44 KJAN 302323
TAFGLH
TAF
KGLH 302323Z 0100/0124 23013G23KT P6SM SCT030 BKN120
     FM011500 24020G34KT P6SM SCT250=

USA.gov is the U.S. government's official web portal to all federal, state and local government web resources and services.